sensor_id;sensor_type;location;lat;lon;timestamp;temperature;humidity
14099;DHT22;7126;48.458;7.930;2024-02-04T00:02:23;8.80;99.90
14099;DHT22;7126;48.458;7.930;2024-02-04T00:04:53;8.80;99.90
14099;DHT22;7126;48.458;7.930;2024-02-04T00:07:18;8.80;99.90
14099;DHT22;7126;48.458;7.930;2024-02-04T00:09:44;8.80;99.90
14099;DHT22;7126;48.458;7.930;2024-02-04T00:12:10;8.80;99.90
14099;DHT22;7126;48.458;7.930;2024-02-04T00:14:35;8.70;99.90
14099;DHT22;7126;48.458;7.930;2024-02-04T00:17:01;8.70;99.90
14099;DHT22;7126;48.458;7.930;2024-02-04T00:19:27;8.70;99.90
14099;DHT22;7126;48.458;7.930;2024-02-04T00:21:52;8.70;99.90
14099;DHT22;7126;48.458;7.930;2024-02-04T00:24:18;8.70;99.90
14099;DHT22;7126;48.458;7.930;2024-02-04T00:26:47;8.70;99.90
14099;DHT22;7126;48.458;7.930;2024-02-04T00:29:12;8.80;99.90
14099;DHT22;7126;48.458;7.930;2024-02-04T00:31:38;8.70;99.90
14099;DHT22;7126;48.458;7.930;2024-02-04T00:34:03;8.80;99.90
14099;DHT22;7126;48.458;7.930;2024-02-04T00:36:30;8.80;99.90
14099;DHT22;7126;48.458;7.930;2024-02-04T00:38:55;8.90;99.90
14099;DHT22;7126;48.458;7.930;2024-02-04T00:41:21;8.80;99.90
14099;DHT22;7126;48.458;7.930;2024-02-04T00:43:46;8.80;99.90
14099;DHT22;7126;48.458;7.930;2024-02-04T00:46:12;8.80;99.90
14099;DHT22;7126;48.458;7.930;2024-02-04T00:48:38;8.80;99.90
14099;DHT22;7126;48.458;7.930;2024-02-04T00:51:04;8.80;99.90
14099;DHT22;7126;48.458;7.930;2024-02-04T00:53:29;8.70;99.90
14099;DHT22;7126;48.458;7.930;2024-02-04T00:56:01;8.70;99.90
14099;DHT22;7126;48.458;7.930;2024-02-04T00:58:26;8.70;99.90
14099;DHT22;7126;48.458;7.930;2024-02-04T01:00:52;8.70;99.90
14099;DHT22;7126;48.458;7.930;2024-02-04T01:03:17;8.60;99.90
14099;DHT22;7126;48.458;7.930;2024-02-04T01:05:43;8.60;99.90
14099;DHT22;7126;48.458;7.930;2024-02-04T01:08:08;8.50;99.90
14099;DHT22;7126;48.458;7.930;2024-02-04T01:10:34;8.50;99.90
14099;DHT22;7126;48.458;7.930;2024-02-04T01:12:59;8.40;99.90
14099;DHT22;7126;48.458;7.930;2024-02-04T01:15:25;8.50;99.90
14099;DHT22;7126;48.458;7.930;2024-02-04T01:17:51;8.50;99.90
14099;DHT22;7126;48.458;7.930;2024-02-04T01:20:18;8.50;99.90
14099;DHT22;7126;48.458;7.930;2024-02-04T01:22:43;8.50;99.90
14099;DHT22;7126;48.458;7.930;2024-02-04T01:25:09;8.50;99.90
14099;DHT22;7126;48.458;7.930;2024-02-04T01:27:34;8.50;99.90
14099;DHT22;7126;48.458;7.930;2024-02-04T01:30:00;8.40;99.90
14099;DHT22;7126;48.458;7.930;2024-02-04T01:32:25;8.50;99.90
14099;DHT22;7126;48.458;7.930;2024-02-04T01:34:51;8.50;99.90
14099;DHT22;7126;48.458;7.930;2024-02-04T01:37:16;8.50;99.90
14099;DHT22;7126;48.458;7.930;2024-02-04T01:39:42;8.40;99.90
14099;DHT22;7126;48.458;7.930;2024-02-04T01:42:07;8.40;99.90
14099;DHT22;7126;48.458;7.930;2024-02-04T01:44:33;8.50;99.90
14099;DHT22;7126;48.458;7.930;2024-02-04T01:46:59;8.60;99.90
14099;DHT22;7126;48.458;7.930;2024-02-04T01:49:24;8.60;99.90
14099;DHT22;7126;48.458;7.930;2024-02-04T01:51:51;8.60;99.90
14099;DHT22;7126;48.458;7.930;2024-02-04T01:54:17;8.70;99.90
14099;DHT22;7126;48.458;7.930;2024-02-04T01:56:44;8.70;99.90
14099;DHT22;7126;48.458;7.930;2024-02-04T01:59:12;8.70;99.90
14099;DHT22;7126;48.458;7.930;2024-02-04T02:01:39;8.70;99.90
14099;DHT22;7126;48.458;7.930;2024-02-04T02:04:04;8.70;99.90
14099;DHT22;7126;48.458;7.930;2024-02-04T02:06:31;8.60;99.90
14099;DHT22;7126;48.458;7.930;2024-02-04T02:08:59;8.60;99.90
14099;DHT22;7126;48.458;7.930;2024-02-04T02:11:44;8.60;99.90
14099;DHT22;7126;48.458;7.930;2024-02-04T02:14:15;8.50;99.90
14099;DHT22;7126;48.458;7.930;2024-02-04T02:16:43;8.40;99.90
14099;DHT22;7126;48.458;7.930;2024-02-04T02:19:42;8.40;99.90
14099;DHT22;7126;48.458;7.930;2024-02-04T02:22:28;8.40;99.90
14099;DHT22;7126;48.458;7.930;2024-02-04T02:24:56;8.40;99.90
14099;DHT22;7126;48.458;7.930;2024-02-04T02:27:22;8.40;99.90
14099;DHT22;7126;48.458;7.930;2024-02-04T02:29:48;8.40;99.90
14099;DHT22;7126;48.458;7.930;2024-02-04T02:32:13;8.40;99.90
14099;DHT22;7126;48.458;7.930;2024-02-04T02:34:39;8.40;99.90
14099;DHT22;7126;48.458;7.930;2024-02-04T02:40:09;8.40;99.90
14099;DHT22;7126;48.458;7.930;2024-02-04T02:42:42;8.30;99.90
14099;DHT22;7126;48.458;7.930;2024-02-04T02:45:09;8.30;99.90
14099;DHT22;7126;48.458;7.930;2024-02-04T02:47:36;8.20;99.90
14099;DHT22;7126;48.458;7.930;2024-02-04T02:50:04;8.20;99.90
14099;DHT22;7126;48.458;7.930;2024-02-04T02:52:30;8.20;99.90
14099;DHT22;7126;48.458;7.930;2024-02-04T02:54:55;8.20;99.90
14099;DHT22;7126;48.458;7.930;2024-02-04T02:57:21;8.10;99.90
14099;DHT22;7126;48.458;7.930;2024-02-04T02:59:46;8.10;99.90
14099;DHT22;7126;48.458;7.930;2024-02-04T03:02:12;8.10;99.90
14099;DHT22;7126;48.458;7.930;2024-02-04T03:04:39;8.10;99.90
14099;DHT22;7126;48.458;7.930;2024-02-04T03:07:04;8.20;99.90
14099;DHT22;7126;48.458;7.930;2024-02-04T03:09:31;8.20;99.90
14099;DHT22;7126;48.458;7.930;2024-02-04T03:11:57;8.20;99.90
14099;DHT22;7126;48.458;7.930;2024-02-04T03:14:22;8.20;99.90
14099;DHT22;7126;48.458;7.930;2024-02-04T03:16:48;8.20;99.90
14099;DHT22;7126;48.458;7.930;2024-02-04T03:19:13;8.20;99.90
14099;DHT22;7126;48.458;7.930;2024-02-04T03:21:39;8.20;99.90
14099;DHT22;7126;48.458;7.930;2024-02-04T03:24:05;8.20;99.90
14099;DHT22;7126;48.458;7.930;2024-02-04T03:26:30;8.20;99.90
14099;DHT22;7126;48.458;7.930;2024-02-04T03:28:56;8.20;99.90
14099;DHT22;7126;48.458;7.930;2024-02-04T03:31:22;8.20;99.90
14099;DHT22;7126;48.458;7.930;2024-02-04T03:33:48;8.20;99.90
14099;DHT22;7126;48.458;7.930;2024-02-04T03:36:20;8.20;99.90
14099;DHT22;7126;48.458;7.930;2024-02-04T03:38:46;8.30;99.90
14099;DHT22;7126;48.458;7.930;2024-02-04T03:41:12;8.30;99.90
14099;DHT22;7126;48.458;7.930;2024-02-04T03:43:37;8.30;99.90
14099;DHT22;7126;48.458;7.930;2024-02-04T03:46:03;8.30;99.90
14099;DHT22;7126;48.458;7.930;2024-02-04T03:48:28;8.30;99.90
14099;DHT22;7126;48.458;7.930;2024-02-04T03:50:54;8.30;99.90
14099;DHT22;7126;48.458;7.930;2024-02-04T03:53:19;8.30;99.90
14099;DHT22;7126;48.458;7.930;2024-02-04T03:55:46;8.30;99.90
14099;DHT22;7126;48.458;7.930;2024-02-04T03:58:12;8.40;99.90
14099;DHT22;7126;48.458;7.930;2024-02-04T04:00:37;8.40;99.90
14099;DHT22;7126;48.458;7.930;2024-02-04T04:03:03;8.40;99.90
14099;DHT22;7126;48.458;7.930;2024-02-04T04:05:28;8.40;99.90
14099;DHT22;7126;48.458;7.930;2024-02-04T04:07:54;8.40;99.90
14099;DHT22;7126;48.458;7.930;2024-02-04T04:10:19;8.50;99.90
14099;DHT22;7126;48.458;7.930;2024-02-04T04:12:45;8.50;99.90
14099;DHT22;7126;48.458;7.930;2024-02-04T04:15:10;8.40;99.90
14099;DHT22;7126;48.458;7.930;2024-02-04T04:17:36;8.40;99.90
14099;DHT22;7126;48.458;7.930;2024-02-04T04:20:01;8.40;99.90
14099;DHT22;7126;48.458;7.930;2024-02-04T04:22:27;8.50;99.90
14099;DHT22;7126;48.458;7.930;2024-02-04T04:24:52;8.40;99.90
14099;DHT22;7126;48.458;7.930;2024-02-04T04:27:18;8.40;99.90
14099;DHT22;7126;48.458;7.930;2024-02-04T04:29:43;8.40;99.90
14099;DHT22;7126;48.458;7.930;2024-02-04T04:32:09;8.30;99.90
14099;DHT22;7126;48.458;7.930;2024-02-04T04:34:34;8.30;99.90
14099;DHT22;7126;48.458;7.930;2024-02-04T04:37:00;8.30;99.90
14099;DHT22;7126;48.458;7.930;2024-02-04T04:39:25;8.40;99.90
14099;DHT22;7126;48.458;7.930;2024-02-04T04:41:51;8.40;99.90
14099;DHT22;7126;48.458;7.930;2024-02-04T04:44:16;8.40;99.90
14099;DHT22;7126;48.458;7.930;2024-02-04T04:46:42;8.40;99.90
14099;DHT22;7126;48.458;7.930;2024-02-04T04:49:07;8.40;99.90
14099;DHT22;7126;48.458;7.930;2024-02-04T04:51:33;8.50;99.90
14099;DHT22;7126;48.458;7.930;2024-02-04T04:53:59;8.50;99.90
14099;DHT22;7126;48.458;7.930;2024-02-04T04:56:24;8.50;99.90
14099;DHT22;7126;48.458;7.930;2024-02-04T04:58:50;8.50;99.90
14099;DHT22;7126;48.458;7.930;2024-02-04T05:01:16;8.50;99.90
14099;DHT22;7126;48.458;7.930;2024-02-04T05:03:41;8.30;99.90
14099;DHT22;7126;48.458;7.930;2024-02-04T05:06:07;8.30;99.90
14099;DHT22;7126;48.458;7.930;2024-02-04T05:08:32;8.30;99.90
14099;DHT22;7126;48.458;7.930;2024-02-04T05:10:58;8.30;99.90
14099;DHT22;7126;48.458;7.930;2024-02-04T05:13:23;8.30;99.90
14099;DHT22;7126;48.458;7.930;2024-02-04T05:15:49;8.30;99.90
14099;DHT22;7126;48.458;7.930;2024-02-04T05:18:14;8.30;99.90
14099;DHT22;7126;48.458;7.930;2024-02-04T05:20:40;8.30;99.90
14099;DHT22;7126;48.458;7.930;2024-02-04T05:23:05;8.40;99.90
14099;DHT22;7126;48.458;7.930;2024-02-04T05:25:31;8.40;99.90
14099;DHT22;7126;48.458;7.930;2024-02-04T05:27:56;8.40;99.90
14099;DHT22;7126;48.458;7.930;2024-02-04T05:30:22;8.50;99.90
14099;DHT22;7126;48.458;7.930;2024-02-04T05:32:48;8.40;99.90
14099;DHT22;7126;48.458;7.930;2024-02-04T05:35:13;8.40;99.90
14099;DHT22;7126;48.458;7.930;2024-02-04T05:37:39;8.30;99.90
14099;DHT22;7126;48.458;7.930;2024-02-04T05:40:05;8.30;99.90
14099;DHT22;7126;48.458;7.930;2024-02-04T05:42:31;8.20;99.90
14099;DHT22;7126;48.458;7.930;2024-02-04T05:44:57;8.30;99.90
14099;DHT22;7126;48.458;7.930;2024-02-04T05:47:23;8.30;99.90
14099;DHT22;7126;48.458;7.930;2024-02-04T05:49:48;8.30;99.90
14099;DHT22;7126;48.458;7.930;2024-02-04T05:52:15;8.30;99.90
14099;DHT22;7126;48.458;7.930;2024-02-04T05:54:40;8.40;99.90
14099;DHT22;7126;48.458;7.930;2024-02-04T05:57:06;8.30;99.90
14099;DHT22;7126;48.458;7.930;2024-02-04T05:59:33;8.40;99.90
14099;DHT22;7126;48.458;7.930;2024-02-04T06:01:58;8.40;99.90
14099;DHT22;7126;48.458;7.930;2024-02-04T06:04:24;8.40;99.90
14099;DHT22;7126;48.458;7.930;2024-02-04T06:06:49;8.40;99.90
14099;DHT22;7126;48.458;7.930;2024-02-04T06:09:15;8.40;99.90
14099;DHT22;7126;48.458;7.930;2024-02-04T06:11:40;8.40;99.90
14099;DHT22;7126;48.458;7.930;2024-02-04T06:14:06;8.30;99.90
14099;DHT22;7126;48.458;7.930;2024-02-04T06:16:31;8.30;99.90
14099;DHT22;7126;48.458;7.930;2024-02-04T06:18:59;8.30;99.90
14099;DHT22;7126;48.458;7.930;2024-02-04T06:21:25;8.30;99.90
14099;DHT22;7126;48.458;7.930;2024-02-04T06:23:50;8.30;99.90
14099;DHT22;7126;48.458;7.930;2024-02-04T06:26:16;8.30;99.90
14099;DHT22;7126;48.458;7.930;2024-02-04T06:28:41;8.30;99.90
14099;DHT22;7126;48.458;7.930;2024-02-04T06:31:11;8.30;99.90
14099;DHT22;7126;48.458;7.930;2024-02-04T06:33:37;8.30;99.90
14099;DHT22;7126;48.458;7.930;2024-02-04T06:36:02;8.30;99.90
14099;DHT22;7126;48.458;7.930;2024-02-04T06:38:28;8.30;99.90
14099;DHT22;7126;48.458;7.930;2024-02-04T06:40:54;8.30;99.90
14099;DHT22;7126;48.458;7.930;2024-02-04T06:43:19;8.30;99.90
14099;DHT22;7126;48.458;7.930;2024-02-04T06:45:45;8.20;99.90
14099;DHT22;7126;48.458;7.930;2024-02-04T06:48:10;8.20;99.90
14099;DHT22;7126;48.458;7.930;2024-02-04T06:50:36;8.20;99.90
14099;DHT22;7126;48.458;7.930;2024-02-04T06:53:02;8.10;99.90
14099;DHT22;7126;48.458;7.930;2024-02-04T06:55:28;8.10;99.90
14099;DHT22;7126;48.458;7.930;2024-02-04T06:57:53;8.20;99.90
14099;DHT22;7126;48.458;7.930;2024-02-04T07:00:19;8.10;99.90
14099;DHT22;7126;48.458;7.930;2024-02-04T07:02:46;8.20;99.90
14099;DHT22;7126;48.458;7.930;2024-02-04T07:05:12;8.20;99.90
14099;DHT22;7126;48.458;7.930;2024-02-04T07:07:37;8.20;99.90
14099;DHT22;7126;48.458;7.930;2024-02-04T07:10:03;8.30;99.90
14099;DHT22;7126;48.458;7.930;2024-02-04T07:12:29;8.30;99.90
14099;DHT22;7126;48.458;7.930;2024-02-04T07:14:54;8.30;99.90
14099;DHT22;7126;48.458;7.930;2024-02-04T07:17:20;8.30;99.90
14099;DHT22;7126;48.458;7.930;2024-02-04T07:19:45;8.30;99.90
14099;DHT22;7126;48.458;7.930;2024-02-04T07:22:11;8.30;99.90
14099;DHT22;7126;48.458;7.930;2024-02-04T07:24:36;8.30;99.90
14099;DHT22;7126;48.458;7.930;2024-02-04T07:27:02;8.30;99.90
14099;DHT22;7126;48.458;7.930;2024-02-04T07:29:27;8.30;99.90
14099;DHT22;7126;48.458;7.930;2024-02-04T07:31:53;8.30;99.90
14099;DHT22;7126;48.458;7.930;2024-02-04T07:34:18;8.30;99.90
14099;DHT22;7126;48.458;7.930;2024-02-04T07:36:44;8.30;99.90
14099;DHT22;7126;48.458;7.930;2024-02-04T07:39:10;8.30;99.90
14099;DHT22;7126;48.458;7.930;2024-02-04T07:41:36;8.30;99.90
14099;DHT22;7126;48.458;7.930;2024-02-04T07:44:01;8.30;99.90
14099;DHT22;7126;48.458;7.930;2024-02-04T07:46:27;8.30;99.90
14099;DHT22;7126;48.458;7.930;2024-02-04T07:48:53;8.30;99.90
14099;DHT22;7126;48.458;7.930;2024-02-04T07:51:18;8.30;99.90
14099;DHT22;7126;48.458;7.930;2024-02-04T07:53:43;8.40;99.90
14099;DHT22;7126;48.458;7.930;2024-02-04T07:56:09;8.40;99.90
14099;DHT22;7126;48.458;7.930;2024-02-04T07:58:36;8.40;99.90
14099;DHT22;7126;48.458;7.930;2024-02-04T08:01:01;8.40;99.90
14099;DHT22;7126;48.458;7.930;2024-02-04T08:03:27;8.50;99.90
14099;DHT22;7126;48.458;7.930;2024-02-04T08:05:52;8.50;99.90
14099;DHT22;7126;48.458;7.930;2024-02-04T08:08:18;8.60;99.90
14099;DHT22;7126;48.458;7.930;2024-02-04T08:10:44;8.60;99.90
14099;DHT22;7126;48.458;7.930;2024-02-04T08:13:11;8.60;99.90
14099;DHT22;7126;48.458;7.930;2024-02-04T08:15:37;8.60;99.90
14099;DHT22;7126;48.458;7.930;2024-02-04T08:18:02;8.60;99.90
14099;DHT22;7126;48.458;7.930;2024-02-04T08:20:28;8.60;99.90
14099;DHT22;7126;48.458;7.930;2024-02-04T08:22:54;8.60;99.90
14099;DHT22;7126;48.458;7.930;2024-02-04T08:25:19;8.60;99.90
14099;DHT22;7126;48.458;7.930;2024-02-04T08:27:46;8.60;99.90
14099;DHT22;7126;48.458;7.930;2024-02-04T08:30:11;8.70;99.90
14099;DHT22;7126;48.458;7.930;2024-02-04T08:32:38;8.70;99.90
14099;DHT22;7126;48.458;7.930;2024-02-04T08:35:04;8.70;99.90
14099;DHT22;7126;48.458;7.930;2024-02-04T08:37:31;8.70;99.90
14099;DHT22;7126;48.458;7.930;2024-02-04T08:39:57;8.80;99.90
14099;DHT22;7126;48.458;7.930;2024-02-04T08:42:22;8.80;99.90
14099;DHT22;7126;48.458;7.930;2024-02-04T08:44:48;8.80;99.90
14099;DHT22;7126;48.458;7.930;2024-02-04T08:47:14;8.80;99.90
14099;DHT22;7126;48.458;7.930;2024-02-04T08:49:41;8.80;99.90
14099;DHT22;7126;48.458;7.930;2024-02-04T08:52:06;8.90;99.90
14099;DHT22;7126;48.458;7.930;2024-02-04T08:54:32;8.90;99.90
14099;DHT22;7126;48.458;7.930;2024-02-04T08:56:57;9.00;99.90
14099;DHT22;7126;48.458;7.930;2024-02-04T08:59:23;9.00;99.90
14099;DHT22;7126;48.458;7.930;2024-02-04T09:01:50;9.00;99.90
14099;DHT22;7126;48.458;7.930;2024-02-04T09:04:15;9.00;99.90
14099;DHT22;7126;48.458;7.930;2024-02-04T09:06:41;9.00;99.90
14099;DHT22;7126;48.458;7.930;2024-02-04T09:09:06;9.00;99.90
14099;DHT22;7126;48.458;7.930;2024-02-04T09:11:33;9.00;99.90
14099;DHT22;7126;48.458;7.930;2024-02-04T09:13:59;8.90;99.90
14099;DHT22;7126;48.458;7.930;2024-02-04T09:16:25;8.90;99.90
14099;DHT22;7126;48.458;7.930;2024-02-04T09:18:50;9.00;99.90
14099;DHT22;7126;48.458;7.930;2024-02-04T09:21:16;9.10;99.90
14099;DHT22;7126;48.458;7.930;2024-02-04T09:23:41;9.20;99.90
14099;DHT22;7126;48.458;7.930;2024-02-04T09:26:07;9.20;99.90
14099;DHT22;7126;48.458;7.930;2024-02-04T09:28:32;9.20;99.90
14099;DHT22;7126;48.458;7.930;2024-02-04T09:30:58;9.20;99.90
14099;DHT22;7126;48.458;7.930;2024-02-04T09:33:23;9.10;99.90
14099;DHT22;7126;48.458;7.930;2024-02-04T09:35:49;9.10;99.90
14099;DHT22;7126;48.458;7.930;2024-02-04T09:38:15;9.20;99.90
14099;DHT22;7126;48.458;7.930;2024-02-04T09:40:41;9.20;99.90
14099;DHT22;7126;48.458;7.930;2024-02-04T09:43:06;9.30;99.90
14099;DHT22;7126;48.458;7.930;2024-02-04T09:45:32;9.30;99.90
14099;DHT22;7126;48.458;7.930;2024-02-04T09:47:58;9.40;99.90
14099;DHT22;7126;48.458;7.930;2024-02-04T09:50:25;9.40;99.90
14099;DHT22;7126;48.458;7.930;2024-02-04T09:52:55;9.50;99.90
14099;DHT22;7126;48.458;7.930;2024-02-04T09:55:21;9.50;99.90
14099;DHT22;7126;48.458;7.930;2024-02-04T09:57:47;9.60;99.90
14099;DHT22;7126;48.458;7.930;2024-02-04T10:00:13;9.80;99.90
14099;DHT22;7126;48.458;7.930;2024-02-04T10:02:39;9.80;99.90
14099;DHT22;7126;48.458;7.930;2024-02-04T10:05:06;9.80;99.90
14099;DHT22;7126;48.458;7.930;2024-02-04T10:07:32;9.80;99.90
14099;DHT22;7126;48.458;7.930;2024-02-04T10:09:58;9.80;99.90
14099;DHT22;7126;48.458;7.930;2024-02-04T10:12:23;9.70;99.90
14099;DHT22;7126;48.458;7.930;2024-02-04T10:14:49;9.70;99.90
14099;DHT22;7126;48.458;7.930;2024-02-04T10:17:15;9.70;99.90
14099;DHT22;7126;48.458;7.930;2024-02-04T10:19:41;9.70;99.90
14099;DHT22;7126;48.458;7.930;2024-02-04T10:22:06;9.80;99.90
14099;DHT22;7126;48.458;7.930;2024-02-04T10:24:32;9.80;99.90
14099;DHT22;7126;48.458;7.930;2024-02-04T10:26:58;9.80;99.90
14099;DHT22;7126;48.458;7.930;2024-02-04T10:29:24;9.90;99.90
14099;DHT22;7126;48.458;7.930;2024-02-04T10:31:56;10.00;99.90
14099;DHT22;7126;48.458;7.930;2024-02-04T10:34:25;10.10;99.90
14099;DHT22;7126;48.458;7.930;2024-02-04T10:36:51;10.10;99.90
14099;DHT22;7126;48.458;7.930;2024-02-04T10:39:16;10.20;99.90
14099;DHT22;7126;48.458;7.930;2024-02-04T10:41:49;10.20;99.90
14099;DHT22;7126;48.458;7.930;2024-02-04T10:44:17;10.10;99.90
14099;DHT22;7126;48.458;7.930;2024-02-04T10:46:46;10.20;99.90
14099;DHT22;7126;48.458;7.930;2024-02-04T10:49:14;10.20;99.90
14099;DHT22;7126;48.458;7.930;2024-02-04T10:51:41;10.20;99.90
14099;DHT22;7126;48.458;7.930;2024-02-04T10:54:07;10.20;99.90
14099;DHT22;7126;48.458;7.930;2024-02-04T10:56:40;10.20;99.90
14099;DHT22;7126;48.458;7.930;2024-02-04T10:59:07;10.30;99.90
14099;DHT22;7126;48.458;7.930;2024-02-04T11:01:35;10.30;99.90
14099;DHT22;7126;48.458;7.930;2024-02-04T11:04:02;10.40;99.90
14099;DHT22;7126;48.458;7.930;2024-02-04T11:06:28;10.50;99.90
14099;DHT22;7126;48.458;7.930;2024-02-04T11:08:55;10.50;99.90
14099;DHT22;7126;48.458;7.930;2024-02-04T11:11:23;10.60;99.90
14099;DHT22;7126;48.458;7.930;2024-02-04T11:13:50;10.70;99.90
14099;DHT22;7126;48.458;7.930;2024-02-04T11:26:53;11.30;99.90
14099;DHT22;7126;48.458;7.930;2024-02-04T11:29:19;11.30;99.90
14099;DHT22;7126;48.458;7.930;2024-02-04T11:31:45;11.20;99.90
14099;DHT22;7126;48.458;7.930;2024-02-04T11:34:11;11.20;99.90
14099;DHT22;7126;48.458;7.930;2024-02-04T11:36:39;11.30;99.90
14099;DHT22;7126;48.458;7.930;2024-02-04T11:39:17;11.30;99.90
14099;DHT22;7126;48.458;7.930;2024-02-04T11:41:47;11.30;99.90
14099;DHT22;7126;48.458;7.930;2024-02-04T11:44:20;11.20;99.90
14099;DHT22;7126;48.458;7.930;2024-02-04T11:46:46;11.20;99.90
14099;DHT22;7126;48.458;7.930;2024-02-04T11:49:16;11.30;99.90
14099;DHT22;7126;48.458;7.930;2024-02-04T11:51:50;11.30;99.90
14099;DHT22;7126;48.458;7.930;2024-02-04T11:54:17;11.40;99.90
14099;DHT22;7126;48.458;7.930;2024-02-04T11:56:45;11.40;99.90
14099;DHT22;7126;48.458;7.930;2024-02-04T11:59:12;11.50;99.90
14099;DHT22;7126;48.458;7.930;2024-02-04T12:01:39;11.50;99.90
14099;DHT22;7126;48.458;7.930;2024-02-04T12:04:12;11.50;99.90
14099;DHT22;7126;48.458;7.930;2024-02-04T12:06:40;11.50;99.90
14099;DHT22;7126;48.458;7.930;2024-02-04T12:09:06;11.60;99.90
14099;DHT22;7126;48.458;7.930;2024-02-04T12:11:33;11.50;99.90
14099;DHT22;7126;48.458;7.930;2024-02-04T12:14:00;11.50;99.90
14099;DHT22;7126;48.458;7.930;2024-02-04T12:16:26;11.40;99.90
14099;DHT22;7126;48.458;7.930;2024-02-04T12:18:52;11.30;99.90
14099;DHT22;7126;48.458;7.930;2024-02-04T12:21:17;11.30;99.90
14099;DHT22;7126;48.458;7.930;2024-02-04T12:23:43;11.20;99.90
14099;DHT22;7126;48.458;7.930;2024-02-04T12:26:09;11.20;99.90
14099;DHT22;7126;48.458;7.930;2024-02-04T12:28:35;11.20;99.90
14099;DHT22;7126;48.458;7.930;2024-02-04T12:31:00;11.20;99.90
14099;DHT22;7126;48.458;7.930;2024-02-04T12:33:26;11.20;99.90
14099;DHT22;7126;48.458;7.930;2024-02-04T12:35:52;11.10;99.90
14099;DHT22;7126;48.458;7.930;2024-02-04T12:38:17;11.10;99.90
14099;DHT22;7126;48.458;7.930;2024-02-04T12:40:43;11.10;99.90
14099;DHT22;7126;48.458;7.930;2024-02-04T12:43:10;11.10;99.90
14099;DHT22;7126;48.458;7.930;2024-02-04T12:45:36;11.00;99.90
14099;DHT22;7126;48.458;7.930;2024-02-04T12:48:02;10.90;99.90
14099;DHT22;7126;48.458;7.930;2024-02-04T12:50:28;11.00;99.90
14099;DHT22;7126;48.458;7.930;2024-02-04T12:53:05;11.00;99.90
14099;DHT22;7126;48.458;7.930;2024-02-04T12:55:32;11.00;99.90
14099;DHT22;7126;48.458;7.930;2024-02-04T12:58:11;11.10;99.90
14099;DHT22;7126;48.458;7.930;2024-02-04T13:00:42;11.10;99.90
14099;DHT22;7126;48.458;7.930;2024-02-04T13:03:08;11.10;99.90
14099;DHT22;7126;48.458;7.930;2024-02-04T13:05:34;11.10;99.90
14099;DHT22;7126;48.458;7.930;2024-02-04T13:08:02;11.10;99.90
14099;DHT22;7126;48.458;7.930;2024-02-04T13:10:32;11.10;99.90
14099;DHT22;7126;48.458;7.930;2024-02-04T13:13:01;11.10;99.90
14099;DHT22;7126;48.458;7.930;2024-02-04T13:15:28;11.10;99.90
14099;DHT22;7126;48.458;7.930;2024-02-04T13:17:55;11.10;99.90
14099;DHT22;7126;48.458;7.930;2024-02-04T13:20:21;11.10;99.90
14099;DHT22;7126;48.458;7.930;2024-02-04T13:22:47;11.10;99.90
14099;DHT22;7126;48.458;7.930;2024-02-04T13:25:12;11.00;99.90
14099;DHT22;7126;48.458;7.930;2024-02-04T13:27:38;11.00;99.90
14099;DHT22;7126;48.458;7.930;2024-02-04T13:30:03;11.00;99.90
14099;DHT22;7126;48.458;7.930;2024-02-04T13:32:29;11.10;99.90
14099;DHT22;7126;48.458;7.930;2024-02-04T13:34:55;11.10;99.90
14099;DHT22;7126;48.458;7.930;2024-02-04T13:37:21;11.20;99.90
14099;DHT22;7126;48.458;7.930;2024-02-04T13:39:46;11.10;99.90
14099;DHT22;7126;48.458;7.930;2024-02-04T13:42:12;11.10;99.90
14099;DHT22;7126;48.458;7.930;2024-02-04T13:44:38;11.10;99.90
14099;DHT22;7126;48.458;7.930;2024-02-04T13:47:04;11.10;99.90
14099;DHT22;7126;48.458;7.930;2024-02-04T13:49:29;11.10;99.90
14099;DHT22;7126;48.458;7.930;2024-02-04T13:51:55;11.10;99.90
14099;DHT22;7126;48.458;7.930;2024-02-04T13:54:20;11.10;99.90
14099;DHT22;7126;48.458;7.930;2024-02-04T13:56:46;11.20;99.90
14099;DHT22;7126;48.458;7.930;2024-02-04T13:59:12;11.20;99.90
14099;DHT22;7126;48.458;7.930;2024-02-04T14:01:38;11.20;99.90
14099;DHT22;7126;48.458;7.930;2024-02-04T14:04:03;11.20;99.90
14099;DHT22;7126;48.458;7.930;2024-02-04T14:06:29;11.20;99.90
14099;DHT22;7126;48.458;7.930;2024-02-04T14:08:54;11.20;99.90
14099;DHT22;7126;48.458;7.930;2024-02-04T14:11:20;11.20;99.90
14099;DHT22;7126;48.458;7.930;2024-02-04T14:13:45;11.20;99.90
14099;DHT22;7126;48.458;7.930;2024-02-04T14:16:11;11.30;99.90
14099;DHT22;7126;48.458;7.930;2024-02-04T14:18:36;11.20;99.90
14099;DHT22;7126;48.458;7.930;2024-02-04T14:21:02;11.10;99.90
14099;DHT22;7126;48.458;7.930;2024-02-04T14:23:28;11.10;99.90
14099;DHT22;7126;48.458;7.930;2024-02-04T14:25:53;11.10;99.90
14099;DHT22;7126;48.458;7.930;2024-02-04T14:28:19;11.10;99.90
14099;DHT22;7126;48.458;7.930;2024-02-04T14:30:45;11.10;99.90
14099;DHT22;7126;48.458;7.930;2024-02-04T14:33:11;11.00;99.90
14099;DHT22;7126;48.458;7.930;2024-02-04T14:35:36;11.00;99.90
14099;DHT22;7126;48.458;7.930;2024-02-04T14:38:02;11.00;99.90
14099;DHT22;7126;48.458;7.930;2024-02-04T14:40:28;11.00;99.90
14099;DHT22;7126;48.458;7.930;2024-02-04T14:42:55;11.00;99.90
14099;DHT22;7126;48.458;7.930;2024-02-04T14:45:21;11.00;99.90
14099;DHT22;7126;48.458;7.930;2024-02-04T14:47:47;11.00;99.90
14099;DHT22;7126;48.458;7.930;2024-02-04T14:50:13;11.00;99.90
14099;DHT22;7126;48.458;7.930;2024-02-04T14:52:40;11.00;99.90
14099;DHT22;7126;48.458;7.930;2024-02-04T14:55:06;10.90;99.90
14099;DHT22;7126;48.458;7.930;2024-02-04T14:57:34;10.90;99.90
14099;DHT22;7126;48.458;7.930;2024-02-04T15:00:00;10.90;99.90
14099;DHT22;7126;48.458;7.930;2024-02-04T15:02:25;10.80;99.90
14099;DHT22;7126;48.458;7.930;2024-02-04T15:04:51;10.80;99.90
14099;DHT22;7126;48.458;7.930;2024-02-04T15:07:17;10.80;99.90
14099;DHT22;7126;48.458;7.930;2024-02-04T15:09:42;10.80;99.90
14099;DHT22;7126;48.458;7.930;2024-02-04T15:12:08;10.70;99.90
14099;DHT22;7126;48.458;7.930;2024-02-04T15:14:35;10.70;99.90
14099;DHT22;7126;48.458;7.930;2024-02-04T15:17:00;10.70;99.90
14099;DHT22;7126;48.458;7.930;2024-02-04T15:19:26;10.70;99.90
14099;DHT22;7126;48.458;7.930;2024-02-04T15:21:52;10.70;99.90
14099;DHT22;7126;48.458;7.930;2024-02-04T15:24:18;10.70;99.90
14099;DHT22;7126;48.458;7.930;2024-02-04T15:26:47;10.70;99.90
14099;DHT22;7126;48.458;7.930;2024-02-04T15:29:13;10.70;99.90
14099;DHT22;7126;48.458;7.930;2024-02-04T15:31:40;10.70;99.90
14099;DHT22;7126;48.458;7.930;2024-02-04T15:34:06;10.80;99.90
14099;DHT22;7126;48.458;7.930;2024-02-04T15:36:33;10.70;99.90
14099;DHT22;7126;48.458;7.930;2024-02-04T15:38:58;10.70;99.90
14099;DHT22;7126;48.458;7.930;2024-02-04T15:41:24;10.70;99.90
14099;DHT22;7126;48.458;7.930;2024-02-04T15:43:49;10.70;99.90
14099;DHT22;7126;48.458;7.930;2024-02-04T15:46:17;10.80;99.90
14099;DHT22;7126;48.458;7.930;2024-02-04T15:48:44;10.80;99.90
14099;DHT22;7126;48.458;7.930;2024-02-04T15:51:11;10.80;99.90
14099;DHT22;7126;48.458;7.930;2024-02-04T15:53:37;10.80;99.90
14099;DHT22;7126;48.458;7.930;2024-02-04T15:56:05;10.80;99.90
14099;DHT22;7126;48.458;7.930;2024-02-04T15:58:36;10.80;99.90
14099;DHT22;7126;48.458;7.930;2024-02-04T16:01:14;10.80;99.90
14099;DHT22;7126;48.458;7.930;2024-02-04T16:03:42;10.80;99.90
14099;DHT22;7126;48.458;7.930;2024-02-04T16:06:09;10.80;99.90